Time;durP1;ratioP1;P1;durP2;ratioP2;P2;SDS_P1;SDS_P2;PMS_P1;PMS_P2;Temp;Humidity;BMP_temperature;BMP_pressure;BME280_temperature;BME280_humidity;BME280_pressure;Samples;Min_cycle;Max_cycle;Signal;HPM_P1;HPM_P2
2021/08/17 00:00:41;;;;;;;11.08;7.62;;;;;;;20.59;80.00;99687.67;1628279;84;25867;-81
2021/08/17 00:03:10;;;;;;;12.28;8.10;;;;;;;20.60;80.09;99687.38;1684375;83;25962;-81
2021/08/17 00:05:38;;;;;;;7.90;7.00;;;;;;;20.59;80.10;99688.45;1655197;84;27615;-81
2021/08/17 00:08:06;;;;;;;10.03;7.67;;;;;;;20.58;80.12;99692.28;1632603;84;25853;-80
2021/08/17 00:10:33;;;;;;;11.50;7.53;;;;;;;20.56;80.13;99696.36;1624580;84;25880;-80
2021/08/17 00:13:00;;;;;;;8.80;7.15;;;;;;;20.55;80.29;99690.09;1670284;84;25938;-81
2021/08/17 00:15:28;;;;;;;11.95;7.92;;;;;;;20.53;80.28;99692.84;1662285;84;25888;-80
2021/08/17 00:17:55;;;;;;;9.63;7.60;;;;;;;20.51;80.44;99695.00;1638798;84;27564;-81
2021/08/17 00:20:24;;;;;;;13.68;8.45;;;;;;;20.51;80.51;99703.16;1631455;84;25886;-81
2021/08/17 00:22:50;;;;;;;10.08;7.85;;;;;;;20.50;80.54;99699.64;1658232;84;25585;-81
2021/08/17 00:25:18;;;;;;;11.35;7.80;;;;;;;20.50;80.51;99688.77;1659684;84;25859;-81
2021/08/17 00:27:45;;;;;;;9.38;6.95;;;;;;;20.51;80.59;99699.91;1648813;83;26001;-81
2021/08/17 00:30:13;;;;;;;8.73;6.40;;;;;;;20.51;80.65;99691.73;1640734;84;27561;-81
2021/08/17 00:32:40;;;;;;;13.88;8.18;;;;;;;20.50;80.52;99686.05;1655787;83;25591;-80
2021/08/17 00:35:08;;;;;;;10.65;7.80;;;;;;;20.49;80.66;99681.67;1666585;84;25888;-80
2021/08/17 00:37:35;;;;;;;9.70;7.37;;;;;;;20.48;80.68;99678.70;1617077;85;26466;-81
2021/08/17 00:40:04;;;;;;;11.35;7.22;;;;;;;20.45;80.53;99679.77;1680166;84;25930;-81
2021/08/17 00:42:41;;;;;;;10.60;7.50;;;;;;;20.42;80.56;99691.22;1659801;84;28062;-81
2021/08/17 00:45:14;;;;;;;10.95;7.20;;;;;;;20.38;80.47;99688.20;1635805;84;26249;-80
2021/08/17 00:47:41;;;;;;;15.72;7.90;;;;;;;20.33;80.58;99690.13;1672478;84;25938;-80
2021/08/17 00:50:08;;;;;;;11.63;6.58;;;;;;;20.31;80.54;99691.77;1653975;84;26006;-81
2021/08/17 00:52:37;;;;;;;9.75;6.45;;;;;;;20.32;80.50;99695.27;1657080;85;26019;-80
2021/08/17 00:55:12;;;;;;;9.43;7.37;;;;;;;20.28;80.40;99696.91;1632495;84;27610;-80
2021/08/17 00:57:43;;;;;;;13.13;7.75;;;;;;;20.29;80.46;99701.28;1652684;85;25871;-80
2021/08/17 01:00:12;;;;;;;14.75;7.20;;;;;;;20.28;80.34;99707.25;1634781;85;25864;-81
2021/08/17 01:02:40;;;;;;;10.32;6.25;;;;;;;20.25;80.07;99705.06;1667588;84;26336;-81
2021/08/17 01:05:09;;;;;;;9.60;6.30;;;;;;;20.22;79.88;99703.44;1630788;85;25848;-80
2021/08/17 01:07:36;;;;;;;10.05;6.85;;;;;;;20.18;79.82;99710.48;1633641;84;27534;-81
2021/08/17 01:10:10;;;;;;;10.82;6.85;;;;;;;20.16;79.88;99709.40;1654038;85;25790;-80
2021/08/17 01:12:38;;;;;;;10.93;6.92;;;;;;;20.13;79.94;99704.48;1663011;85;25877;-81
2021/08/17 01:15:09;;;;;;;11.18;7.55;;;;;;;20.07;79.99;99706.94;1641596;84;25960;-82
2021/08/17 01:17:36;;;;;;;12.15;7.53;;;;;;;20.02;79.98;99711.56;1657977;85;26286;-81
2021/08/17 01:20:04;;;;;;;10.65;6.65;;;;;;;19.97;80.05;99701.49;1683989;84;27513;-81
2021/08/17 01:22:31;;;;;;;11.45;6.25;;;;;;;19.92;80.09;99702.30;1659347;85;25775;-81
2021/08/17 01:24:58;;;;;;;9.23;7.15;;;;;;;19.89;80.33;99704.18;1631875;84;25900;-81
2021/08/17 01:27:25;;;;;;;13.90;7.03;;;;;;;19.84;80.42;99707.45;1618125;85;25926;-80
2021/08/17 01:29:52;;;;;;;11.70;7.12;;;;;;;19.82;80.70;99707.69;1623910;85;25427;-81
2021/08/17 01:32:19;;;;;;;10.72;6.92;;;;;;;19.81;80.84;99710.69;1663978;84;27477;-81
2021/08/17 01:34:46;;;;;;;10.80;6.60;;;;;;;19.78;80.85;99725.63;1655221;84;25954;-81
2021/08/17 01:37:13;;;;;;;12.50;6.92;;;;;;;19.75;80.90;99732.14;1631851;84;25365;-81
2021/08/17 01:39:40;;;;;;;9.45;6.75;;;;;;;19.73;81.01;99737.86;1632612;85;26047;-81
2021/08/17 01:42:07;;;;;;;26.00;7.55;;;;;;;19.68;81.11;99741.91;1671063;84;26040;-80
2021/08/17 01:44:34;;;;;;;11.63;6.45;;;;;;;19.65;81.36;99751.93;1632601;84;28171;-81
2021/08/17 01:47:01;;;;;;;11.22;6.90;;;;;;;19.59;81.34;99756.28;1615524;85;25863;-81
2021/08/17 01:49:28;;;;;;;9.28;6.80;;;;;;;19.54;81.61;99764.40;1668044;84;26410;-80
2021/08/17 01:51:55;;;;;;;8.38;6.35;;;;;;;19.50;81.44;99772.81;1635308;85;26550;-80
2021/08/17 01:58:36;;;;;;;11.70;6.70;;;;;;;19.40;81.80;99787.67;1667535;83;26517;-81
2021/08/17 02:01:06;;;;;;;9.60;6.22;;;;;;;19.26;81.49;99799.53;1641126;83;26240;-80
2021/08/17 02:03:33;;;;;;;10.00;6.47;;;;;;;19.16;81.36;99808.42;1632595;85;25865;-81
2021/08/17 02:06:01;;;;;;;11.25;6.60;;;;;;;19.10;81.36;99812.72;1660270;85;26087;-81
2021/08/17 02:08:28;;;;;;;7.12;5.72;;;;;;;19.05;81.39;99810.78;1672491;84;26684;-81
2021/08/17 02:10:55;;;;;;;11.03;6.60;;;;;;;19.02;81.54;99820.00;1640955;84;27643;-81
2021/08/17 02:13:23;;;;;;;12.53;6.80;;;;;;;18.96;81.43;99816.97;1626079;85;25843;-80
2021/08/17 02:15:51;;;;;;;10.20;6.05;;;;;;;18.91;81.40;99814.20;1669268;85;25813;-81
2021/08/17 02:18:18;;;;;;;9.15;6.75;;;;;;;18.86;81.64;99816.91;1669413;85;27088;-81
2021/08/17 02:20:45;;;;;;;12.93;7.05;;;;;;;18.82;81.73;99809.00;1598750;85;26599;-81
2021/08/17 02:23:13;;;;;;;13.48;8.18;;;;;;;18.82;81.79;99804.94;1596251;85;27406;-81
2021/08/17 02:25:40;;;;;;;10.53;6.90;;;;;;;18.83;81.68;99799.77;1669030;83;25929;-82
2021/08/17 02:28:08;;;;;;;11.28;6.75;;;;;;;18.78;81.36;99798.36;1678800;83;26001;-81
2021/08/17 02:30:35;;;;;;;10.48;6.92;;;;;;;18.72;81.35;99803.47;1598721;85;25983;-81
2021/08/17 02:33:02;;;;;;;12.78;7.60;;;;;;;18.68;81.39;99803.71;1609564;85;25856;-81
2021/08/17 02:35:29;;;;;;;10.23;6.85;;;;;;;18.60;81.25;99803.66;1654057;85;27615;-81
2021/08/17 02:37:56;;;;;;;11.10;6.97;;;;;;;18.57;81.46;99799.27;1677731;85;25794;-81
2021/08/17 02:40:23;;;;;;;11.73;7.05;;;;;;;18.52;81.26;99797.89;1596667;85;25822;-80
2021/08/17 02:42:50;;;;;;;12.07;6.47;;;;;;;18.46;81.25;99793.77;1601441;85;25947;-81
2021/08/17 02:45:17;;;;;;;12.10;6.78;;;;;;;18.37;81.14;99796.63;1641203;85;25763;-82
2021/08/17 02:47:44;;;;;;;8.88;5.47;;;;;;;18.30;81.22;99800.63;1669594;84;27645;-81
2021/08/17 02:50:11;;;;;;;8.23;5.40;;;;;;;18.22;81.06;99792.97;1595338;85;26103;-82
2021/08/17 02:52:38;;;;;;;8.68;5.85;;;;;;;18.16;81.06;99796.67;1598742;85;26536;-82
2021/08/17 02:55:07;;;;;;;10.53;6.20;;;;;;;18.13;81.21;99800.73;1669903;83;25855;-82
2021/08/17 02:57:34;;;;;;;9.55;5.70;;;;;;;18.08;81.17;99806.62;1669590;85;25414;-81
2021/08/17 03:00:01;;;;;;;10.88;5.22;;;;;;;18.00;81.18;99805.73;1621163;85;27600;-80
2021/08/17 03:02:28;;;;;;;7.53;4.97;;;;;;;17.90;81.14;99799.64;1656070;84;25665;-80
2021/08/17 03:04:55;;;;;;;9.58;5.80;;;;;;;17.85;81.39;99801.48;1690706;84;25770;-81
2021/08/17 03:07:22;;;;;;;10.70;4.80;;;;;;;17.76;81.31;99793.52;1679789;84;25886;-82
2021/08/17 03:09:49;;;;;;;8.88;5.12;;;;;;;17.77;81.49;99800.02;1634959;85;25610;-82
2021/08/17 03:12:16;;;;;;;9.05;4.75;;;;;;;17.75;81.38;99802.17;1609006;84;27255;-81
2021/08/17 03:14:43;;;;;;;10.08;4.47;;;;;;;17.73;81.55;99798.36;1680569;84;26027;-82
2021/08/17 03:17:10;;;;;;;8.58;4.10;;;;;;;17.73;81.47;99795.39;1677244;84;25834;-82
2021/08/17 03:19:38;;;;;;;7.10;4.25;;;;;;;17.67;81.45;99794.49;1605320;84;25993;-82
2021/08/17 03:22:08;;;;;;;14.93;4.05;;;;;;;17.64;81.37;99794.45;1632471;85;25354;-81
2021/08/17 03:24:35;;;;;;;10.05;3.98;;;;;;;17.62;81.34;99799.30;1689399;84;27471;-81
2021/08/17 03:27:02;;;;;;;6.75;4.20;;;;;;;17.54;81.37;99790.27;1664127;85;25767;-81
2021/08/17 03:29:29;;;;;;;6.03;3.72;;;;;;;17.48;81.15;99779.59;1628634;85;25927;-81
2021/08/17 03:31:56;;;;;;;5.28;4.00;;;;;;;17.41;81.14;99783.02;1612189;84;25856;-81
2021/08/17 03:34:23;;;;;;;6.78;3.10;;;;;;;17.37;81.34;99772.41;1686319;84;25798;-81
2021/08/17 03:36:50;;;;;;;7.53;3.40;;;;;;;17.27;81.03;99771.75;1669801;84;27556;-81
2021/08/17 03:39:17;;;;;;;8.83;3.27;;;;;;;17.18;81.26;99764.30;1615311;85;25829;-81
2021/08/17 03:41:44;;;;;;;6.47;3.70;;;;;;;17.13;81.37;99763.69;1622244;85;25900;-81
2021/08/17 03:44:11;;;;;;;4.00;3.08;;;;;;;17.09;81.45;99773.37;1674570;84;25820;-80
2021/08/17 03:46:38;;;;;;;5.53;2.98;;;;;;;17.10;81.52;99785.02;1673180;84;25928;-81
2021/08/17 03:49:05;;;;;;;8.68;3.47;;;;;;;17.07;81.56;99793.63;1636661;84;27628;-81
2021/08/17 03:51:32;;;;;;;6.40;3.72;;;;;;;17.03;81.64;99787.91;1609046;84;25819;-82
2021/08/17 03:53:59;;;;;;;6.30;4.35;;;;;;;17.06;81.85;99783.36;1659947;85;25362;-81
2021/08/17 03:56:26;;;;;;;6.30;3.33;;;;;;;17.07;81.77;99799.86;1676289;84;25883;-81
2021/08/17 03:58:53;;;;;;;7.42;3.90;;;;;;;17.07;81.93;99798.52;1634989;85;25845;-81
2021/08/17 04:01:21;;;;;;;6.33;3.60;;;;;;;17.08;82.08;99808.28;1637569;84;27555;-81
2021/08/17 04:03:48;;;;;;;7.92;4.20;;;;;;;17.07;82.04;99811.22;1661461;84;25824;-81
2021/08/17 04:06:15;;;;;;;6.40;4.67;;;;;;;17.08;82.08;99823.17;1678557;84;25868;-80
2021/08/17 04:08:42;;;;;;;9.55;6.72;;;;;;;17.05;82.12;99812.00;1641315;84;25877;-81
2021/08/17 04:11:09;;;;;;;6.62;3.80;;;;;;;17.06;82.06;99817.19;1615589;85;25999;-81
2021/08/17 04:13:37;;;;;;;5.65;3.67;;;;;;;17.03;81.94;99812.25;1694697;84;27433;-80
2021/08/17 04:16:04;;;;;;;3.58;3.02;;;;;;;16.99;81.93;99811.11;1682911;84;26561;-80
2021/08/17 04:18:31;;;;;;;5.62;3.52;;;;;;;16.91;82.16;99805.57;1634474;83;25822;-81
2021/08/17 04:20:58;;;;;;;7.60;3.58;;;;;;;16.84;81.69;99818.46;1638848;85;26623;-82
2021/08/17 04:23:25;;;;;;;8.15;3.10;;;;;;;16.82;81.83;99819.25;1640189;84;26597;-80
2021/08/17 04:25:52;;;;;;;4.45;3.33;;;;;;;16.81;81.77;99825.70;1665316;85;27647;-80
2021/08/17 04:28:20;;;;;;;4.10;3.00;;;;;;;16.76;81.58;99835.63;1639490;82;26510;-81
2021/08/17 04:30:47;;;;;;;5.28;3.02;;;;;;;16.73;81.54;99843.70;1603013;83;25893;-82
2021/08/17 04:33:14;;;;;;;4.40;2.77;;;;;;;16.71;81.85;99847.19;1691879;84;26043;-80
2021/08/17 04:35:41;;;;;;;6.65;3.33;;;;;;;16.69;81.58;99844.43;1684328;84;25785;-81
2021/08/17 04:38:08;;;;;;;4.87;3.27;;;;;;;16.70;81.49;99854.99;1623914;84;28298;-81
2021/08/17 04:40:35;;;;;;;4.05;2.72;;;;;;;16.71;81.47;99862.05;1625180;84;25932;-81
2021/08/17 04:43:02;;;;;;;4.97;2.92;;;;;;;16.66;81.02;99867.89;1678782;84;25883;-81
2021/08/17 04:45:29;;;;;;;6.58;2.77;;;;;;;16.64;81.07;99874.91;1661820;84;26004;-80
2021/08/17 04:47:56;;;;;;;4.47;3.00;;;;;;;16.67;80.83;99887.13;1597562;85;25847;-80
2021/08/17 04:50:23;;;;;;;3.65;2.65;;;;;;;16.64;80.90;99891.66;1608920;84;28222;-80
2021/08/17 04:52:50;;;;;;;3.62;2.80;;;;;;;16.62;80.87;99897.84;1674299;85;25743;-82
2021/08/17 04:55:18;;;;;;;4.90;2.95;;;;;;;16.62;80.82;99912.70;1654092;85;25644;-80
2021/08/17 04:57:57;;;;;;;3.55;2.50;;;;;;;16.60;80.60;99908.08;1611998;84;25903;-81
2021/08/17 05:00:28;;;;;;;5.55;3.10;;;;;;;16.58;80.70;99915.09;1597435;84;26609;-81
2021/08/17 05:02:55;;;;;;;;;;;;;;;16.53;80.87;99914.98;1687547;84;27478;-81
2021/08/17 05:05:25;;;;;;;4.30;2.75;;;;;;;16.50;80.88;99925.47;1634559;84;25837;-81
2021/08/17 05:07:52;;;;;;;4.75;2.87;;;;;;;16.46;81.08;99931.04;1629539;84;25981;-82
2021/08/17 05:10:22;;;;;;;4.92;2.77;;;;;;;16.47;81.22;99942.13;1649010;84;25598;-81
2021/08/17 05:12:49;;;;;;;5.60;3.08;;;;;;;16.50;81.19;99940.34;1683011;84;25571;-81
2021/08/17 05:15:16;;;;;;;5.90;3.33;;;;;;;16.49;81.29;99952.16;1670262;84;27640;-80
2021/08/17 05:17:44;;;;;;;6.17;3.30;;;;;;;16.48;81.51;99951.89;1630303;84;25803;-84
2021/08/17 05:20:12;;;;;;;4.75;2.77;;;;;;;16.47;81.56;99950.23;1650645;84;25837;-81
2021/08/17 05:22:39;;;;;;;4.80;3.37;;;;;;;16.46;81.80;99950.79;1661723;84;26523;-82
2021/08/17 05:25:07;;;;;;;5.62;2.60;;;;;;;16.48;81.62;99948.66;1686307;84;25837;-82
2021/08/17 05:27:34;;;;;;;7.53;2.85;;;;;;;16.51;81.24;99947.40;1596761;85;27366;-80
2021/08/17 05:30:01;;;;;;;3.60;2.40;;;;;;;16.51;81.05;99954.16;1658576;85;25916;-81
2021/08/17 05:32:28;;;;;;;3.37;2.30;;;;;;;16.52;81.00;99962.02;1680263;85;25751;-81
2021/08/17 05:34:55;;;;;;;4.95;2.47;;;;;;;16.52;80.40;99969.30;1668972;85;26497;-81
2021/08/17 05:37:22;;;;;;;3.27;2.00;;;;;;;16.48;79.93;99970.81;1604817;85;25910;-80
2021/08/17 05:39:49;;;;;;;4.53;1.90;;;;;;;16.49;79.36;99969.22;1617824;85;27452;-81
2021/08/17 05:42:16;;;;;;;3.30;2.05;;;;;;;16.49;78.63;99962.98;1649279;85;25802;-81
2021/08/17 05:44:44;;;;;;;3.80;2.12;;;;;;;16.48;77.85;99971.64;1701669;84;25965;-81
2021/08/17 05:47:12;;;;;;;6.03;1.72;;;;;;;16.49;77.76;99980.55;1648732;84;25862;-81
2021/08/17 05:49:40;;;;;;;2.67;1.70;;;;;;;16.45;76.69;99978.05;1672828;84;25836;-80
2021/08/17 05:52:11;;;;;;;3.20;2.22;;;;;;;16.45;75.53;99988.33;1699002;83;27573;-80
2021/08/17 05:54:39;;;;;;;3.58;1.65;;;;;;;16.42;75.01;99992.88;1683063;83;26480;-80
2021/08/17 05:57:07;;;;;;;4.25;1.80;;;;;;;16.36;75.09;99989.76;1632019;84;25902;-80
2021/08/17 05:59:34;;;;;;;5.65;1.77;;;;;;;16.37;74.51;99989.23;1630115;84;26088;-79
2021/08/17 06:02:03;;;;;;;5.62;2.10;;;;;;;16.36;74.22;99987.06;1655965;85;26248;-80
2021/08/17 06:04:30;;;;;;;4.05;1.67;;;;;;;16.36;74.31;99991.11;1665709;84;27529;-81
2021/08/17 06:06:58;;;;;;;4.78;1.90;;;;;;;16.37;74.02;99993.29;1631564;84;26506;-78
2021/08/17 06:09:25;;;;;;;5.67;2.12;;;;;;;16.40;74.18;99996.88;1640431;85;25834;-80
2021/08/17 06:11:56;;;;;;;3.30;1.45;;;;;;;16.41;73.37;99997.98;1657339;85;27021;-79
2021/08/17 06:14:22;;;;;;;6.80;2.50;;;;;;;16.43;73.76;100000.44;1673047;84;25887;-79
2021/08/17 06:16:49;;;;;;;4.70;1.95;;;;;;;16.45;73.95;99996.97;1615171;84;27525;-80
2021/08/17 06:19:16;;;;;;;6.15;1.95;;;;;;;16.50;73.94;99997.11;1635023;84;25973;-80
2021/08/17 06:21:43;;;;;;;4.62;2.50;;;;;;;16.54;73.37;99994.22;1660808;84;25798;-82
2021/08/17 06:24:10;;;;;;;6.05;1.55;;;;;;;16.55;73.55;99987.77;1682321;84;26850;-83
2021/08/17 06:26:37;;;;;;;6.37;2.17;;;;;;;16.60;73.41;99987.32;1607982;84;25947;-82
2021/08/17 06:29:04;;;;;;;2.90;1.80;;;;;;;16.63;72.99;99988.20;1636459;85;27475;-81
2021/08/17 06:31:31;;;;;;;6.65;2.20;;;;;;;16.63;73.11;99992.78;1666671;84;25928;-80
2021/08/17 06:34:00;;;;;;;5.50;1.70;;;;;;;16.67;72.74;99995.29;1682858;85;25858;-81
2021/08/17 06:36:28;;;;;;;5.55;2.00;;;;;;;16.68;73.10;99992.89;1605728;84;25847;-83
2021/08/17 06:38:55;;;;;;;5.12;1.90;;;;;;;16.67;72.05;99998.00;1638636;85;26461;-81
2021/08/17 06:41:22;;;;;;;13.20;2.62;;;;;;;16.71;72.66;99989.69;1658827;84;27650;-81
2021/08/17 06:43:49;;;;;;;7.15;2.58;;;;;;;16.84;73.19;99993.46;1677166;84;25871;-81
2021/08/17 06:46:16;;;;;;;6.00;1.60;;;;;;;17.07;73.21;99995.22;1635594;84;25926;-82
2021/08/17 06:48:43;;;;;;;4.95;1.80;;;;;;;17.34;73.16;99995.70;1636914;85;26447;-80
2021/08/17 06:51:10;;;;;;;8.55;2.30;;;;;;;17.63;72.07;100000.03;1661027;84;25775;-82
2021/08/17 06:53:38;;;;;;;4.53;1.90;;;;;;;17.84;70.95;100013.34;1675869;84;28152;-81
2021/08/17 06:56:07;;;;;;;4.42;2.08;;;;;;;17.95;69.44;100009.72;1614924;85;25824;-82
2021/08/17 06:58:34;;;;;;;6.22;1.55;;;;;;;17.97;68.02;100006.75;1644967;83;26025;-80
2021/08/17 07:01:02;;;;;;;4.25;2.20;;;;;;;17.87;66.96;100003.37;1669069;84;26477;-80
2021/08/17 07:03:30;;;;;;;5.78;2.27;;;;;;;17.75;67.02;100004.54;1679133;84;25850;-79
2021/08/17 07:05:57;;;;;;;5.55;1.87;;;;;;;17.73;68.01;100000.70;1644985;84;27327;-82
2021/08/17 07:08:25;;;;;;;7.03;2.80;;;;;;;17.73;66.89;100010.73;1636273;84;25855;-81
2021/08/17 07:10:54;;;;;;;4.42;1.82;;;;;;;17.70;67.49;100012.05;1638952;85;26556;-82
2021/08/17 07:13:21;;;;;;;4.25;2.15;;;;;;;17.73;67.32;100012.36;1686599;84;25964;-81
2021/08/17 07:15:49;;;;;;;6.62;2.77;;;;;;;17.78;67.75;100016.22;1626324;85;25357;-81
2021/08/17 07:18:16;;;;;;;7.65;2.33;;;;;;;17.84;67.78;100017.93;1658569;82;28431;-82
2021/08/17 07:20:43;;;;;;;6.60;2.22;;;;;;;17.86;68.12;100032.05;1671433;84;26041;-81
2021/08/17 07:23:11;;;;;;;7.65;2.30;;;;;;;17.91;68.30;100035.67;1686547;84;25340;-80
2021/08/17 07:25:38;;;;;;;10.18;2.85;;;;;;;17.88;67.29;100044.28;1660586;85;25740;-81
2021/08/17 07:28:06;;;;;;;3.95;2.67;;;;;;;17.82;68.08;100051.22;1638286;86;25919;-81
2021/08/17 07:30:33;;;;;;;4.53;2.45;;;;;;;17.83;68.71;100049.64;1686358;83;27489;-82
2021/08/17 07:33:00;;;;;;;8.05;2.92;;;;;;;17.83;68.69;100046.11;1692224;83;25730;-81
2021/08/17 07:35:28;;;;;;;9.43;3.60;;;;;;;17.85;69.04;100039.91;1651610;84;26889;-82
2021/08/17 07:37:55;;;;;;;10.08;3.67;;;;;;;17.85;69.04;100038.55;1645703;84;26526;-83
2021/08/17 07:40:23;;;;;;;12.53;4.37;;;;;;;17.77;68.95;100038.41;1669197;84;25838;-78
2021/08/17 07:42:50;;;;;;;10.00;3.20;;;;;;;17.73;69.67;100036.75;1660282;84;27348;-78
2021/08/17 07:45:18;;;;;;;10.23;3.52;;;;;;;17.76;69.99;100042.21;1650475;84;25833;-81
2021/08/17 07:47:46;;;;;;;5.90;3.02;;;;;;;17.79;70.15;100044.44;1630859;84;25879;-80
2021/08/17 07:50:19;;;;;;;5.90;2.70;;;;;;;17.77;69.90;100044.39;1693445;83;25920;-82
2021/08/17 07:52:46;;;;;;;8.18;2.30;;;;;;;17.74;68.88;100052.47;1698164;83;25838;-81
2021/08/17 07:55:15;;;;;;;5.65;2.60;;;;;;;17.60;67.37;100041.13;1649107;84;27360;-83
2021/08/17 07:57:41;;;;;;;6.35;2.92;;;;;;;17.51;67.96;100045.30;1648465;83;26212;-82
2021/08/17 08:00:12;;;;;;;10.13;4.45;;;;;;;17.50;67.69;100030.67;1667540;84;26037;-79
2021/08/17 08:02:39;;;;;;;7.30;3.87;;;;;;;17.46;67.45;100045.20;1691764;84;25957;-78
2021/08/17 08:05:09;;;;;;;8.85;3.52;;;;;;;17.42;67.90;100052.70;1596404;86;25650;-78
2021/08/17 08:07:36;;;;;;;8.38;2.60;;;;;;;17.40;67.91;100056.19;1669834;84;28257;-79
2021/08/17 08:10:04;;;;;;;6.08;3.10;;;;;;;17.38;67.68;100050.20;1667141;83;25875;-78
2021/08/17 08:12:31;;;;;;;6.92;2.87;;;;;;;17.40;67.90;100054.84;1674123;85;25814;-79
2021/08/17 08:14:58;;;;;;;8.78;3.30;;;;;;;17.39;67.33;100055.89;1629544;85;25660;-78
2021/08/17 08:17:25;;;;;;;6.58;3.30;;;;;;;17.38;67.66;100045.62;1627372;84;26547;-78
2021/08/17 08:19:52;;;;;;;7.45;3.35;;;;;;;17.43;67.28;100058.39;1651963;85;28278;-79
2021/08/17 08:22:19;;;;;;;6.85;4.03;;;;;;;17.45;66.38;100053.58;1619472;85;26630;-79
2021/08/17 08:24:46;;;;;;;9.48;4.58;;;;;;;17.48;67.12;100063.38;1644975;84;25868;-79
2021/08/17 08:27:14;;;;;;;11.33;4.70;;;;;;;17.57;67.04;100066.54;1667191;84;25926;-79
2021/08/17 08:29:43;;;;;;;4.55;2.70;;;;;;;17.63;66.93;100062.84;1659280;84;26549;-79
2021/08/17 08:32:10;;;;;;;8.53;2.85;;;;;;;17.66;67.04;100060.45;1680969;84;28278;-78
2021/08/17 08:34:38;;;;;;;7.50;3.65;;;;;;;17.79;67.82;100067.99;1635373;85;25718;-79
2021/08/17 08:37:05;;;;;;;9.53;3.90;;;;;;;17.99;67.82;100065.05;1651623;86;25781;-78
2021/08/17 08:39:33;;;;;;;6.60;4.17;;;;;;;18.13;67.10;100066.91;1652032;84;25833;-78
2021/08/17 08:42:01;;;;;;;5.50;3.22;;;;;;;18.17;65.75;100063.45;1654787;85;25924;-79
2021/08/17 08:44:29;;;;;;;10.58;4.60;;;;;;;18.21;65.63;100068.66;1620758;84;27593;-79
2021/08/17 08:46:56;;;;;;;6.40;4.55;;;;;;;18.29;65.10;100074.17;1636497;84;26018;-79
2021/08/17 08:49:24;;;;;;;12.03;5.80;;;;;;;18.36;65.26;100072.94;1688153;83;26083;-79
2021/08/17 08:51:51;;;;;;;8.03;4.25;;;;;;;18.38;64.71;100072.16;1629675;85;25854;-79
2021/08/17 08:54:18;;;;;;;10.32;5.45;;;;;;;18.38;64.28;100082.17;1655862;84;25837;-78
2021/08/17 08:56:46;;;;;;;7.50;4.00;;;;;;;18.36;65.00;100085.14;1659540;85;28123;-79
2021/08/17 08:59:13;;;;;;;6.58;3.95;;;;;;;18.40;64.84;100083.57;1646636;84;25783;-79
2021/08/17 09:01:40;;;;;;;7.97;4.75;;;;;;;18.33;64.80;100084.27;1650221;84;25854;-79
2021/08/17 09:04:07;;;;;;;7.78;4.03;;;;;;;18.34;65.69;100090.52;1688331;84;26407;-78
2021/08/17 09:06:34;;;;;;;8.03;4.83;;;;;;;18.41;65.96;100090.62;1633220;84;26604;-78
2021/08/17 09:09:14;;;;;;;6.97;3.77;;;;;;;18.43;64.96;100102.59;1634721;85;27435;-79
2021/08/17 09:11:49;;;;;;;5.75;4.00;;;;;;;18.39;64.74;100109.03;1651185;84;25830;-78
2021/08/17 09:14:28;;;;;;;9.48;3.83;;;;;;;18.35;64.16;100101.11;1653280;84;25787;-79
2021/08/17 09:17:10;;;;;;;6.62;3.50;;;;;;;18.28;64.37;100098.30;1661317;84;26545;-79
2021/08/17 09:19:43;;;;;;;7.28;3.92;;;;;;;18.24;64.53;100108.01;1652199;84;26574;-79
2021/08/17 09:22:19;;;;;;;4.97;3.22;;;;;;;18.22;64.91;100097.95;1631064;85;27306;-78
2021/08/17 09:24:52;;;;;;;7.37;3.20;;;;;;;18.22;64.73;100100.66;1671702;84;25841;-79
2021/08/17 09:27:26;;;;;;;6.90;3.02;;;;;;;18.20;64.70;100104.13;1663340;84;25893;-79
2021/08/17 09:30:12;;;;;;;6.92;3.08;;;;;;;18.18;64.40;100112.52;1641073;85;25915;-79
2021/08/17 09:32:56;;;;;;;5.22;2.37;;;;;;;18.17;64.68;100116.31;1621518;86;25882;-78
2021/08/17 09:35:25;;;;;;;8.55;4.17;;;;;;;18.17;63.78;100114.95;1669019;85;27599;-79
2021/08/17 09:38:08;;;;;;;6.67;3.27;;;;;;;18.20;63.98;100114.97;1639379;86;25859;-78
2021/08/17 09:40:35;;;;;;;5.10;2.50;;;;;;;18.33;64.66;100114.10;1622461;87;25410;-79
2021/08/17 09:43:19;;;;;;;5.83;2.87;;;;;;;18.48;63.89;100113.52;1598740;87;26479;-79
2021/08/17 09:45:48;;;;;;;8.15;3.22;;;;;;;18.54;62.80;100115.79;1648264;86;25817;-79
2021/08/17 09:48:28;;;;;;;4.05;2.65;;;;;;;18.55;62.73;100119.59;1640356;83;28298;-79
2021/08/17 09:50:55;;;;;;;6.05;2.85;;;;;;;18.66;63.23;100117.31;1640553;86;25797;-79
2021/08/17 09:53:23;;;;;;;5.47;2.90;;;;;;;18.77;63.30;100126.41;1618227;86;26603;-79
2021/08/17 09:55:55;;;;;;;7.90;3.17;;;;;;;18.81;62.72;100127.02;1625730;87;25900;-79
2021/08/17 09:58:33;;;;;;;3.22;2.58;;;;;;;18.83;62.17;100126.23;1629277;85;25899;-79
2021/08/17 10:01:06;;;;;;;3.65;2.45;;;;;;;18.94;63.11;100132.08;1626562;86;27498;-79
2021/08/17 10:03:34;;;;;;;6.70;2.90;;;;;;;19.00;62.78;100139.20;1642954;85;25379;-79
2021/08/17 10:06:01;;;;;;;4.85;2.42;;;;;;;19.06;62.53;100131.40;1676850;85;26444;-79
2021/08/17 10:08:32;;;;;;;5.87;2.95;;;;;;;19.14;62.19;100123.33;1670887;84;26636;-79
2021/08/17 10:11:00;;;;;;;7.65;3.20;;;;;;;19.14;61.41;100121.97;1694423;84;25845;-79
2021/08/17 10:13:31;;;;;;;4.70;2.08;;;;;;;19.15;61.30;100116.84;1670764;85;46565;-79
2021/08/17 10:15:58;;;;;;;3.85;2.40;;;;;;;19.09;61.41;100128.19;1676824;85;25834;-79
2021/08/17 10:18:36;;;;;;;6.75;2.95;;;;;;;18.96;60.25;100144.86;1676924;84;25806;-79
2021/08/17 10:21:03;;;;;;;6.67;3.00;;;;;;;18.89;61.46;100144.73;1694662;84;26609;-79
2021/08/17 10:23:33;;;;;;;8.63;4.15;;;;;;;18.88;61.58;100151.26;1671062;85;25832;-78
2021/08/17 10:26:02;;;;;;;6.33;3.12;;;;;;;18.84;60.66;100156.91;1676526;85;27465;-78
2021/08/17 10:28:39;;;;;;;8.38;3.15;;;;;;;18.78;60.57;100154.64;1694309;84;26714;-79
2021/08/17 10:31:22;;;;;;;6.53;3.58;;;;;;;18.81;60.05;100149.25;1693002;83;25790;-78
2021/08/17 10:34:09;;;;;;;6.00;3.40;;;;;;;18.82;60.90;100142.77;1678181;84;25851;-78
2021/08/17 10:36:44;;;;;;;6.62;3.72;;;;;;;18.87;60.93;100148.24;1704703;84;25741;-78
2021/08/17 10:39:22;;;;;;;4.83;3.02;;;;;;;18.89;60.82;100154.23;1678852;84;27552;-78
2021/08/17 10:41:53;;;;;;;6.25;3.22;;;;;;;18.81;60.39;100146.02;1701922;83;25889;-78
2021/08/17 10:44:32;;;;;;;8.95;4.05;;;;;;;18.77;61.16;100148.95;1654809;84;25865;-79
2021/08/17 10:47:06;;;;;;;4.45;2.90;;;;;;;18.82;61.66;100150.91;1705017;84;25859;-78
2021/08/17 10:49:48;;;;;;;5.78;3.40;;;;;;;18.84;61.50;100152.27;1704660;82;25804;-79
2021/08/17 10:52:38;;;;;;;6.67;3.62;;;;;;;18.79;61.13;100159.54;1655985;84;27616;-79
2021/08/17 10:55:34;;;;;;;5.70;3.42;;;;;;;18.73;60.84;100165.45;1654643;84;25869;-78
2021/08/17 10:58:05;;;;;;;8.60;4.40;;;;;;;18.69;60.95;100172.98;1695984;84;25868;-78
2021/08/17 11:00:52;;;;;;;7.45;3.87;;;;;;;18.56;61.04;100169.25;1673413;84;26393;-79
2021/08/17 11:03:50;;;;;;;7.70;4.12;;;;;;;18.50;60.72;100165.63;1624424;85;26209;-78
2021/08/17 11:06:51;;;;;;;7.72;4.90;;;;;;;18.48;61.32;100174.55;1602686;85;27593;-78
2021/08/17 11:09:27;;;;;;;7.58;4.50;;;;;;;18.49;61.09;100173.49;1673267;84;25950;-78
2021/08/17 11:12:11;;;;;;;7.62;3.92;;;;;;;18.42;60.78;100178.23;1658701;85;25914;-78
2021/08/17 11:14:41;;;;;;;8.25;4.20;;;;;;;18.31;60.91;100185.38;1660142;85;26533;-78
2021/08/17 11:17:11;;;;;;;7.37;4.03;;;;;;;18.21;61.02;100185.23;1604461;85;26103;-78
2021/08/17 11:19:41;;;;;;;9.05;3.77;;;;;;;18.20;61.19;100193.59;1685928;83;27616;-78
2021/08/17 11:22:12;;;;;;;5.00;2.80;;;;;;;18.22;61.25;100194.19;1685950;85;26358;-78
2021/08/17 11:24:46;;;;;;;4.92;3.37;;;;;;;18.26;61.28;100188.00;1660765;85;25840;-78
2021/08/17 11:27:26;;;;;;;5.33;3.50;;;;;;;18.37;61.31;100185.75;1636464;85;25871;-78
2021/08/17 11:30:07;;;;;;;6.15;3.42;;;;;;;18.47;60.41;100181.06;1686241;83;25976;-79
2021/08/17 11:32:39;;;;;;;5.25;3.17;;;;;;;18.53;60.54;100181.95;1696330;84;28735;-79
2021/08/17 11:35:10;;;;;;;5.97;3.17;;;;;;;18.61;60.79;100186.41;1633581;85;25915;-78
2021/08/17 11:37:47;;;;;;;8.15;3.65;;;;;;;18.68;60.78;100191.67;1631732;85;25815;-78
2021/08/17 11:40:24;;;;;;;4.97;3.50;;;;;;;18.72;60.70;100186.85;1678766;83;25896;-79
2021/08/17 11:42:53;;;;;;;5.28;3.40;;;;;;;18.87;60.65;100180.81;1677814;85;25862;-79